South Arkansas Regional At Goodwin Field
KELD : now visible

Airfield :











YOU CAN JOIN US ON...

 
LOGIN :

Register | Disclaimer

   EN    FR    IT 

 









Legend :    VFR   Marginal VFR   IFR   Intensive IFR   Very Intensive IFR
Visi :
Ceiling :
>= 8 km
>= 3000ft
5 to 8 km
1000 to 3000 ft
1500m to 5 km
500 to 1000 ft
800 to 1500m
200 to 500 ft
< 800m
< 200 ft
Symbols :   Thunderstorms  Fog  Heavy snow  Heavy precipitations  Wind > 20 kt






- Airport Elevation : 277 ft
- IATA code : ELD


KELD - South Arkansas Regional At Goodwin Field

CURRENT METAR :
  • 050453Z AUTO 11004KT 10SM CLR 24/23 A2991 RMK AO2 SLP124 T02390228

EXPIRED METARs :
  • 050353Z AUTO 13005KT 10SM SCT110 24/23 A2991 RMK AO2 SLP124 T02440228

TAF KELD
Valid from the 05 at 06:00 until the 06 at 06:00 UTC


050539Z 0506/0606 VRB04KT P6SM SCT050 SCT100
FM050800 VRB04KT P6SM SCT050 BKN100
FM051500 VRB04KT P6SM SCT020 BKN035
FM051700 VRB05KT P6SM BKN040
FM052000 VRB05KT P6SM VCTS BKN045CB
FM060200 VRB03KT P6SM SCT050 SCT120 BKN250
KZFW FIR / North America



MET'MAP, your aeronautical weather chart ! - Copyright ORBIFLY December 2007 - Disclaimer

ORBIFLY MET'MAP TEAM :

Programming & Development : Alexandra Zaïnal
Concept & original design : Baudouin d'Aumeries
Assistance for programming : Marc-Olivier Méhu
Technical & hardware support : Manuel Goepfert

Contact : metmap@orbifly.com




SOURCES & CREDITS :

   NOAA       Earth
Advisory